createdAt,value
2023-03-01T00:00:56.858Z,12.63
2023-03-01T00:05:00.323Z,17.35
2023-03-01T00:09:03.660Z,12.95
2023-03-01T00:13:08.688Z,11.77
2023-03-01T00:17:12.097Z,13.25
2023-03-01T00:21:15.643Z,13.82
2023-03-01T00:25:19.253Z,12.38
2023-03-01T00:29:24.050Z,16.88
2023-03-01T00:37:30.203Z,13.88
2023-03-01T00:41:35.945Z,17.15
2023-03-01T00:45:40.775Z,17.58
2023-03-01T00:53:47.851Z,15.35
2023-03-01T00:57:51.415Z,13.48
2023-03-01T01:01:56.223Z,13.40
2023-03-01T01:10:02.659Z,12.77
2023-03-01T01:14:06.529Z,12.48
2023-03-01T01:18:11.592Z,17.85
2023-03-01T01:22:14.802Z,14.27
2023-03-01T01:26:20.334Z,15.95
2023-03-01T01:30:23.589Z,14.30
2023-03-01T01:34:28.256Z,16.40
2023-03-01T01:38:31.994Z,14.77
2023-03-01T01:42:35.324Z,18.15
2023-03-01T01:46:40.470Z,17.77
2023-03-01T01:50:46.239Z,19.40
2023-03-01T01:54:54.391Z,14.82
2023-03-01T01:58:58.090Z,15.57
2023-03-01T02:03:02.849Z,14.35
2023-03-01T02:11:11.861Z,15.32
2023-03-01T02:15:15.269Z,15.70
2023-03-01T02:19:29.128Z,15.05
2023-03-01T02:23:34.136Z,14.20
2023-03-01T02:27:44.007Z,13.95
2023-03-01T02:31:49.420Z,15.90
2023-03-01T02:35:52.992Z,15.02
2023-03-01T02:40:00.303Z,17.73
2023-03-01T02:44:04.829Z,18.02
2023-03-01T02:48:09.820Z,15.73
2023-03-01T02:52:43.305Z,15.65
2023-03-01T02:56:49.364Z,18.08
2023-03-01T03:00:53.039Z,19.00
2023-03-01T03:04:57.725Z,17.90
2023-03-01T03:09:01.280Z,18.88
2023-03-01T03:13:07.304Z,17.02
2023-03-01T03:17:10.682Z,20.23
2023-03-01T03:21:15.746Z,15.05
2023-03-01T03:25:19.890Z,15.35
2023-03-01T03:29:23.495Z,21.73
2023-03-01T03:33:27.456Z,20.52
2023-03-01T03:37:49.434Z,24.20
2023-03-01T03:41:52.576Z,20.45
2023-03-01T03:45:58.253Z,18.65
2023-03-01T03:50:01.692Z,17.83
2023-03-01T03:54:06.499Z,19.77
2023-03-01T03:58:11.628Z,24.92
2023-03-01T04:02:23.451Z,12.43
2023-03-01T04:06:26.747Z,19.77
2023-03-01T04:10:32.824Z,21.33
2023-03-01T04:14:36.468Z,27.05
2023-03-01T04:18:39.749Z,25.38
2023-03-01T04:22:43.329Z,16.20
2023-03-01T04:26:48.325Z,27.23
2023-03-01T04:30:51.881Z,19.50
2023-03-01T04:34:55.064Z,22.45
2023-03-01T04:38:58.900Z,22.20
2023-03-01T04:43:04.114Z,20.50
2023-03-01T04:47:07.694Z,16.40
2023-03-01T04:51:14.611Z,22.70
2023-03-01T04:55:18.308Z,26.15
2023-03-01T04:59:24.008Z,24.08
2023-03-01T05:03:27.279Z,22.25
2023-03-01T05:07:30.497Z,22.92
2023-03-01T05:11:36.925Z,23.92
2023-03-01T05:15:42.229Z,21.20
2023-03-01T05:19:45.546Z,25.88
2023-03-01T05:23:49.222Z,30.15
2023-03-01T05:27:53.071Z,28.88
2023-03-01T05:32:00.476Z,25.55
2023-03-01T05:36:03.893Z,28.30
2023-03-01T05:40:08.071Z,29.13
2023-03-01T05:44:13.400Z,25.02
2023-03-01T05:48:17.684Z,21.75
2023-03-01T05:52:20.575Z,21.02
2023-03-01T05:56:24.671Z,22.92
2023-03-01T06:00:27.833Z,21.13
2023-03-01T06:04:32.148Z,26.70
2023-03-01T06:08:35.264Z,25.80
2023-03-01T06:12:39.213Z,27.45
2023-03-01T06:16:42.552Z,26.27
2023-03-01T06:20:47.069Z,28.67
2023-03-01T06:24:49.972Z,24.73
2023-03-01T06:28:53.051Z,27.55
2023-03-01T06:33:01.845Z,25.60
2023-03-01T06:37:06.924Z,26.35
2023-03-01T06:41:09.938Z,29.77
2023-03-01T06:45:14.023Z,26.90
2023-03-01T06:49:18.732Z,28.77
2023-03-01T06:57:27.136Z,22.20
2023-03-01T07:01:29.810Z,27.77
2023-03-01T07:05:35.656Z,28.70
2023-03-01T07:09:39.866Z,24.67
2023-03-01T07:13:42.912Z,22.25
2023-03-01T07:17:48.638Z,24.00
2023-03-01T07:21:52.499Z,21.52
2023-03-01T07:25:57.062Z,24.05
2023-03-01T07:34:02.729Z,24.20
2023-03-01T07:38:05.694Z,19.80
2023-03-01T07:42:10.591Z,23.80
2023-03-01T07:46:14.032Z,23.52
2023-03-01T07:50:17.545Z,25.30
2023-03-01T07:54:20.855Z,23.13
2023-03-01T07:58:25.486Z,23.45
2023-03-01T08:02:28.425Z,28.83
2023-03-01T08:06:34.008Z,20.35
2023-03-01T08:10:38.425Z,24.30
2023-03-01T08:14:43.563Z,23.35
2023-03-01T08:18:57.829Z,22.00
2023-03-01T08:23:04.779Z,25.45
2023-03-01T08:27:09.880Z,21.48
2023-03-01T08:31:19.791Z,25.20
2023-03-01T08:35:23.333Z,22.73
2023-03-01T08:39:26.426Z,23.38
2023-03-01T08:43:29.712Z,20.10
2023-03-01T08:47:34.834Z,19.83
2023-03-01T08:51:39.139Z,20.33
2023-03-01T08:59:51.907Z,19.98
2023-03-01T09:03:57.189Z,24.65
2023-03-01T09:08:02.138Z,21.25
2023-03-01T09:12:09.732Z,22.98
2023-03-01T09:16:19.370Z,22.45
2023-03-01T09:20:32.825Z,25.23
2023-03-01T09:24:36.367Z,20.48
2023-03-01T09:28:43.600Z,23.42
2023-03-01T09:32:47.820Z,21.98
2023-03-01T09:36:53.779Z,20.98
2023-03-01T09:40:57.463Z,21.38
2023-03-01T09:45:03.563Z,23.02
2023-03-01T09:49:13.383Z,19.85
2023-03-01T09:53:20.762Z,21.85
2023-03-01T09:57:30.935Z,21.20
2023-03-01T10:01:38.327Z,24.50
2023-03-01T10:05:49.491Z,21.48
2023-03-01T10:09:56.352Z,19.67
2023-03-01T10:14:06.669Z,20.38
2023-03-01T10:18:19.823Z,19.17
2023-03-01T10:22:24.394Z,19.98
2023-03-01T10:26:47.222Z,20.63
2023-03-01T10:30:50.235Z,20.63
2023-03-01T10:34:56.011Z,22.05
2023-03-01T10:39:00.327Z,20.45
2023-03-01T10:43:06.309Z,19.55
2023-03-01T10:47:16.929Z,16.67
2023-03-01T10:51:22.213Z,20.35
2023-03-01T10:55:30.559Z,21.83
2023-03-01T10:59:36.497Z,18.25
2023-03-01T11:03:44.015Z,20.65
2023-03-01T11:07:50.920Z,21.35
2023-03-01T11:11:54.674Z,19.38
2023-03-01T11:16:03.178Z,19.98
2023-03-01T11:20:24.172Z,20.13
2023-03-01T11:24:33.156Z,18.70
2023-03-01T11:28:38.360Z,20.77
2023-03-01T11:32:45.748Z,19.15
2023-03-01T11:36:56.125Z,20.60
2023-03-01T11:41:04.487Z,17.75
2023-03-01T11:45:12.505Z,21.75
2023-03-01T11:49:39.627Z,20.05
2023-03-01T11:54:01.091Z,15.88
2023-03-01T11:58:23.375Z,18.55
2023-03-01T12:02:48.194Z,17.05
2023-03-01T12:06:59.121Z,20.73
2023-03-01T12:11:07.954Z,15.20
2023-03-01T12:15:35.966Z,17.50
2023-03-01T12:20:15.848Z,19.50
2023-03-01T12:24:39.863Z,18.55
2023-03-01T12:28:54.826Z,17.20
2023-03-01T12:33:09.857Z,19.40
2023-03-01T12:37:21.162Z,18.67
2023-03-01T12:41:38.564Z,16.98
2023-03-01T12:45:50.844Z,21.23
2023-03-01T12:49:57.646Z,20.58
2023-03-01T12:54:02.639Z,17.77
2023-03-01T12:58:15.826Z,17.67
2023-03-01T13:02:28.258Z,16.85
2023-03-01T13:06:43.435Z,19.42
2023-03-01T13:10:52.497Z,17.60
2023-03-01T13:14:57.431Z,20.17
2023-03-01T13:19:09.455Z,15.68
2023-03-01T13:23:16.198Z,19.85
2023-03-01T13:27:30.564Z,17.95
2023-03-01T13:31:59.533Z,18.90
2023-03-01T13:36:03.331Z,16.10
2023-03-01T13:40:25.344Z,14.82
2023-03-01T13:44:32.746Z,16.80
2023-03-01T13:48:40.044Z,16.90
2023-03-01T13:52:44.636Z,16.45
2023-03-01T13:56:47.720Z,18.13
2023-03-01T14:01:05.821Z,13.55
2023-03-01T14:05:13.055Z,16.50
2023-03-01T14:09:18.896Z,17.23
2023-03-01T14:13:32.009Z,14.18
2023-03-01T14:17:54.971Z,14.38
2023-03-01T14:22:08.237Z,15.57
2023-03-01T14:26:13.095Z,16.58
2023-03-01T14:30:23.728Z,16.35
2023-03-01T14:34:28.025Z,15.07
2023-03-01T14:38:35.754Z,12.15
2023-03-01T14:42:38.808Z,13.85
2023-03-01T14:46:43.412Z,14.68
2023-03-01T14:50:47.488Z,14.80
2023-03-01T14:54:53.761Z,17.52
2023-03-01T14:59:00.677Z,13.25
2023-03-01T15:03:11.168Z,12.82
2023-03-01T15:07:15.908Z,16.52
2023-03-01T15:11:26.106Z,12.50
2023-03-01T15:15:38.427Z,15.18
2023-03-01T15:19:41.931Z,11.38
2023-03-01T15:23:53.307Z,11.43
2023-03-01T15:28:00.418Z,12.13
2023-03-01T15:32:04.985Z,11.02
2023-03-01T15:36:33.274Z,14.13
2023-03-01T15:40:38.442Z,13.38
2023-03-01T15:44:46.472Z,13.70
2023-03-01T15:48:53.699Z,15.38
2023-03-01T15:52:57.489Z,16.02
2023-03-01T15:57:00.417Z,17.83
2023-03-01T16:01:05.157Z,13.68
2023-03-01T16:05:11.443Z,15.27
2023-03-01T16:09:14.589Z,17.10
2023-03-01T16:13:18.371Z,16.42
2023-03-01T16:17:23.426Z,17.00
2023-03-01T16:21:27.288Z,17.23
2023-03-01T16:25:31.194Z,14.82
2023-03-01T16:29:35.008Z,17.55
2023-03-01T16:33:39.813Z,16.92
2023-03-01T16:37:43.512Z,16.90
2023-03-01T16:41:46.393Z,13.57
2023-03-01T16:45:49.307Z,14.52
2023-03-01T16:49:55.671Z,14.68
2023-03-01T16:53:58.484Z,16.92
2023-03-01T16:58:01.281Z,12.30
2023-03-01T17:02:04.253Z,14.80
2023-03-01T17:06:10.574Z,15.18
2023-03-01T17:10:15.937Z,14.93
2023-03-01T17:14:18.743Z,13.40
2023-03-01T17:18:21.865Z,12.15
2023-03-01T17:22:26.184Z,12.45
2023-03-01T17:30:33.219Z,13.60
2023-03-01T17:34:36.517Z,12.68
2023-03-01T17:38:41.830Z,11.80
2023-03-01T17:42:44.679Z,13.00
2023-03-01T17:46:47.782Z,11.88
2023-03-01T17:50:51.360Z,10.80
2023-03-01T17:54:56.350Z,15.00
2023-03-01T17:59:00.117Z,11.88
2023-03-01T18:03:05.191Z,12.13
2023-03-01T18:07:10.053Z,12.25
2023-03-01T18:11:15.333Z,12.90
2023-03-01T18:15:20.314Z,11.75
2023-03-01T18:19:24.227Z,10.90
2023-03-01T18:23:28.637Z,11.90
2023-03-01T18:27:33.655Z,11.98
2023-03-01T18:31:37.443Z,12.55
2023-03-01T18:35:43.127Z,11.18
2023-03-01T18:39:46.614Z,11.35
2023-03-01T18:43:51.665Z,14.93
2023-03-01T18:47:55.172Z,12.10
2023-03-01T18:51:58.781Z,13.38
2023-03-01T18:56:02.971Z,12.65
2023-03-01T19:00:09.401Z,12.35
2023-03-01T19:04:12.993Z,11.25
2023-03-01T19:08:18.297Z,16.55
2023-03-01T19:12:21.906Z,12.35
2023-03-01T19:16:29.308Z,13.93
2023-03-01T19:20:33.200Z,14.05
2023-03-01T19:24:36.824Z,13.05
2023-03-01T19:28:40.940Z,13.00
2023-03-01T19:32:45.723Z,12.52
2023-03-01T19:36:49.231Z,13.20
2023-03-01T19:40:52.780Z,12.98
2023-03-01T19:44:56.233Z,15.07
2023-03-01T19:49:03.692Z,12.93
2023-03-01T19:53:07.503Z,10.68
2023-03-01T19:57:11.222Z,12.27
2023-03-01T20:01:20.489Z,11.38
2023-03-01T20:05:25.423Z,12.52
2023-03-01T20:09:29.329Z,11.70
2023-03-01T20:13:32.921Z,14.27
2023-03-01T20:17:36.185Z,13.48
2023-03-01T20:21:41.156Z,13.15
2023-03-01T20:25:44.392Z,14.63
2023-03-01T20:29:48.626Z,16.73
2023-03-01T20:33:51.884Z,13.63
2023-03-01T20:37:56.794Z,13.02
2023-03-01T20:42:00.121Z,17.38
2023-03-01T20:46:05.660Z,14.38
2023-03-01T20:50:09.520Z,12.23
2023-03-01T20:54:15.759Z,16.45
2023-03-01T20:58:19.393Z,16.00
2023-03-01T21:02:23.016Z,14.55
2023-03-01T21:06:26.664Z,12.77
2023-03-01T21:10:31.518Z,20.85
2023-03-01T21:14:42.647Z,12.88
2023-03-01T21:18:45.958Z,14.15
2023-03-01T21:22:49.422Z,15.48
2023-03-01T21:26:54.590Z,13.38
2023-03-01T21:30:58.327Z,13.27
2023-03-01T21:35:01.839Z,14.90
2023-03-01T21:39:06.920Z,14.35
2023-03-01T21:43:11.721Z,13.50
2023-03-01T21:47:16.408Z,15.18
2023-03-01T21:51:21.903Z,12.77
2023-03-01T21:55:25.571Z,11.63
2023-03-01T21:59:30.224Z,16.70
2023-03-01T22:03:33.970Z,14.82
2023-03-01T22:07:37.562Z,16.50
2023-03-01T22:11:42.822Z,15.15
2023-03-01T22:15:48.311Z,13.20
2023-03-01T22:19:51.717Z,15.30
2023-03-01T22:23:56.427Z,16.27
2023-03-01T22:28:00.213Z,15.77
2023-03-01T22:32:06.657Z,17.73
2023-03-01T22:36:10.160Z,19.17
2023-03-01T22:40:13.619Z,16.55
2023-03-01T22:44:20.291Z,16.88
2023-03-01T22:48:25.729Z,17.15
2023-03-01T22:52:29.003Z,16.63
2023-03-01T22:56:34.942Z,12.00
2023-03-01T23:00:38.782Z,17.75
2023-03-01T23:04:44.184Z,19.42
2023-03-01T23:08:50.998Z,18.45
2023-03-01T23:12:55.940Z,17.75
2023-03-01T23:17:00.918Z,19.73
2023-03-01T23:21:11.166Z,14.73
2023-03-01T23:25:15.168Z,17.15
2023-03-01T23:29:18.627Z,18.85
2023-03-01T23:33:22.106Z,16.83
2023-03-01T23:37:31.120Z,22.77
2023-03-01T23:41:36.235Z,22.92
2023-03-01T23:45:43.154Z,16.30
2023-03-01T23:49:46.429Z,16.40
2023-03-01T23:53:55.478Z,17.65
2023-03-01T23:57:58.790Z,21.92
